sensor_id;sensor_type;location;lat;lon;timestamp;pressure;altitude;pressure_sealevel;temperature;humidity
23253;BME280;11795;47.054;15.408;2023-03-18T00:00:01;97370;;;4.2;55.3
23253;BME280;11795;47.054;15.408;2023-03-18T00:02:01;97370;;;4.0;55.8
23253;BME280;11795;47.054;15.408;2023-03-18T00:04:01;97370;;;4.2;55.1
23253;BME280;11795;47.054;15.408;2023-03-18T00:06:04;97370;;;4.0;55.6
23253;BME280;11795;47.054;15.408;2023-03-18T00:08:01;97370;;;4.0;55.7
23253;BME280;11795;47.054;15.408;2023-03-18T00:10:01;97370;;;4.1;55.5
23253;BME280;11795;47.054;15.408;2023-03-18T00:12:00;97370;;;3.9;56.0
23253;BME280;11795;47.054;15.408;2023-03-18T00:14:00;97370;;;4.1;55.4
23253;BME280;11795;47.054;15.408;2023-03-18T00:16:01;97370;;;3.9;55.8
23253;BME280;11795;47.054;15.408;2023-03-18T00:18:00;97370;;;3.9;55.8
23253;BME280;11795;47.054;15.408;2023-03-18T00:20:09;97370;;;3.9;56.0
23253;BME280;11795;47.054;15.408;2023-03-18T00:22:00;97370;;;3.8;56.2
23253;BME280;11795;47.054;15.408;2023-03-18T00:24:01;97370;;;4.0;55.8
23253;BME280;11795;47.054;15.408;2023-03-18T00:26:01;97360;;;3.8;56.2
23253;BME280;11795;47.054;15.408;2023-03-18T00:28:01;97370;;;3.8;56.2
23253;BME280;11795;47.054;15.408;2023-03-18T00:30:02;97370;;;3.9;56.0
23253;BME280;11795;47.054;15.408;2023-03-18T00:32:01;97370;;;3.7;56.5
23253;BME280;11795;47.054;15.408;2023-03-18T00:34:01;97360;;;3.9;56.0
23253;BME280;11795;47.054;15.408;2023-03-18T00:36:02;97360;;;3.7;56.5
23253;BME280;11795;47.054;15.408;2023-03-18T00:38:03;97360;;;3.7;56.6
23253;BME280;11795;47.054;15.408;2023-03-18T00:40:07;97360;;;3.8;56.3
23253;BME280;11795;47.054;15.408;2023-03-18T00:42:07;97360;;;3.6;57.1
23253;BME280;11795;47.054;15.408;2023-03-18T00:44:01;97360;;;3.8;56.4
23253;BME280;11795;47.054;15.408;2023-03-18T00:46:00;97360;;;3.6;57.0
23253;BME280;11795;47.054;15.408;2023-03-18T00:48:00;97360;;;3.5;57.5
23253;BME280;11795;47.054;15.408;2023-03-18T00:50:01;97360;;;3.6;57.1
23253;BME280;11795;47.054;15.408;2023-03-18T00:52:00;97360;;;3.5;57.5
23253;BME280;11795;47.054;15.408;2023-03-18T00:54:02;97360;;;3.6;57.1
23253;BME280;11795;47.054;15.408;2023-03-18T00:56:00;97360;;;3.5;57.4
23253;BME280;11795;47.054;15.408;2023-03-18T00:58:02;97360;;;3.4;57.7
23253;BME280;11795;47.054;15.408;2023-03-18T01:00:00;97360;;;3.5;57.6
23253;BME280;11795;47.054;15.408;2023-03-18T01:02:00;97350;;;3.4;58.0
23253;BME280;11795;47.054;15.408;2023-03-18T01:04:01;97350;;;3.5;57.6
23253;BME280;11795;47.054;15.408;2023-03-18T01:06:02;97360;;;3.3;58.0
23253;BME280;11795;47.054;15.408;2023-03-18T01:08:01;97350;;;3.3;58.2
23253;BME280;11795;47.054;15.408;2023-03-18T01:10:01;97350;;;3.4;57.8
23253;BME280;11795;47.054;15.408;2023-03-18T01:12:00;97350;;;3.2;58.3
23253;BME280;11795;47.054;15.408;2023-03-18T01:14:01;97340;;;3.4;57.7
23253;BME280;11795;47.054;15.408;2023-03-18T01:16:00;97350;;;3.2;58.3
23253;BME280;11795;47.054;15.408;2023-03-18T01:18:01;97350;;;3.2;58.2
23253;BME280;11795;47.054;15.408;2023-03-18T01:20:03;97340;;;3.3;58.1
23253;BME280;11795;47.054;15.408;2023-03-18T01:22:01;97340;;;3.1;58.6
23253;BME280;11795;47.054;15.408;2023-03-18T01:24:00;97340;;;3.3;58.1
23253;BME280;11795;47.054;15.408;2023-03-18T01:26:02;97340;;;3.2;58.3
23253;BME280;11795;47.054;15.408;2023-03-18T01:28:00;97340;;;3.2;58.4
23253;BME280;11795;47.054;15.408;2023-03-18T01:30:00;97340;;;3.2;58.4
23253;BME280;11795;47.054;15.408;2023-03-18T01:32:02;97350;;;3.1;58.9
23253;BME280;11795;47.054;15.408;2023-03-18T01:34:01;97340;;;3.3;58.4
23253;BME280;11795;47.054;15.408;2023-03-18T01:36:04;97340;;;3.1;58.7
23253;BME280;11795;47.054;15.408;2023-03-18T01:38:02;97340;;;3.0;59.1
23253;BME280;11795;47.054;15.408;2023-03-18T01:40:01;97330;;;3.1;58.8
23253;BME280;11795;47.054;15.408;2023-03-18T01:42:00;97340;;;3.0;59.1
23253;BME280;11795;47.054;15.408;2023-03-18T01:44:01;97330;;;3.2;58.6
23253;BME280;11795;47.054;15.408;2023-03-18T01:48:00;97330;;;2.9;59.4
23253;BME280;11795;47.054;15.408;2023-03-18T01:50:01;97340;;;3.0;58.8
23253;BME280;11795;47.054;15.408;2023-03-18T01:52:04;97330;;;2.9;59.4
23253;BME280;11795;47.054;15.408;2023-03-18T01:54:04;97340;;;3.1;58.9
23253;BME280;11795;47.054;15.408;2023-03-18T01:56:01;97340;;;2.9;59.4
23253;BME280;11795;47.054;15.408;2023-03-18T01:58:05;97340;;;2.8;59.8
23253;BME280;11795;47.054;15.408;2023-03-18T02:00:02;97340;;;2.9;59.3
23253;BME280;11795;47.054;15.408;2023-03-18T02:02:03;97330;;;2.8;59.7
23253;BME280;11795;47.054;15.408;2023-03-18T02:04:02;97330;;;3.0;59.0
23253;BME280;11795;47.054;15.408;2023-03-18T02:06:02;97330;;;2.8;59.5
23253;BME280;11795;47.054;15.408;2023-03-18T02:08:00;97340;;;2.7;60.1
23253;BME280;11795;47.054;15.408;2023-03-18T02:10:05;97340;;;2.8;59.5
23253;BME280;11795;47.054;15.408;2023-03-18T02:12:01;97350;;;2.7;59.9
23253;BME280;11795;47.054;15.408;2023-03-18T02:14:01;97340;;;2.9;59.4
23253;BME280;11795;47.054;15.408;2023-03-18T02:16:04;97340;;;2.6;60.0
23253;BME280;11795;47.054;15.408;2023-03-18T02:18:04;97340;;;2.6;60.3
23253;BME280;11795;47.054;15.408;2023-03-18T02:20:08;97350;;;2.7;59.9
23253;BME280;11795;47.054;15.408;2023-03-18T02:22:08;97350;;;2.6;60.4
23253;BME280;11795;47.054;15.408;2023-03-18T02:24:07;97340;;;2.7;59.9
23253;BME280;11795;47.054;15.408;2023-03-18T02:26:04;97350;;;2.5;60.6
23253;BME280;11795;47.054;15.408;2023-03-18T02:28:03;97350;;;2.5;60.9
23253;BME280;11795;47.054;15.408;2023-03-18T02:30:07;97350;;;2.6;60.4
23253;BME280;11795;47.054;15.408;2023-03-18T02:32:03;97350;;;2.4;60.9
23253;BME280;11795;47.054;15.408;2023-03-18T02:34:01;97350;;;2.6;60.3
23253;BME280;11795;47.054;15.408;2023-03-18T02:36:03;97350;;;2.5;60.8
23253;BME280;11795;47.054;15.408;2023-03-18T02:38:01;97350;;;2.3;61.4
23253;BME280;11795;47.054;15.408;2023-03-18T02:40:11;97340;;;2.4;61.0
23253;BME280;11795;47.054;15.408;2023-03-18T02:42:01;97350;;;2.3;61.2
23253;BME280;11795;47.054;15.408;2023-03-18T02:44:01;97340;;;2.6;60.5
23253;BME280;11795;47.054;15.408;2023-03-18T02:46:13;97340;;;2.4;61.1
23253;BME280;11795;47.054;15.408;2023-03-18T02:48:03;97340;;;2.3;61.2
23253;BME280;11795;47.054;15.408;2023-03-18T02:50:02;97340;;;2.4;60.8
23253;BME280;11795;47.054;15.408;2023-03-18T02:52:01;97340;;;2.3;61.3
23253;BME280;11795;47.054;15.408;2023-03-18T02:54:04;97340;;;2.5;60.7
23253;BME280;11795;47.054;15.408;2023-03-18T02:56:01;97340;;;2.3;61.3
23253;BME280;11795;47.054;15.408;2023-03-18T02:58:01;97340;;;2.2;61.5
23253;BME280;11795;47.054;15.408;2023-03-18T03:00:00;97340;;;2.3;61.3
23253;BME280;11795;47.054;15.408;2023-03-18T03:02:01;97340;;;2.2;61.5
23253;BME280;11795;47.054;15.408;2023-03-18T03:04:01;97340;;;2.4;61.2
23253;BME280;11795;47.054;15.408;2023-03-18T03:06:01;97340;;;2.2;61.5
23253;BME280;11795;47.054;15.408;2023-03-18T03:08:01;97340;;;2.1;62.1
23253;BME280;11795;47.054;15.408;2023-03-18T03:10:00;97340;;;2.2;61.6
23253;BME280;11795;47.054;15.408;2023-03-18T03:12:01;97340;;;2.1;62.0
23253;BME280;11795;47.054;15.408;2023-03-18T03:14:01;97340;;;2.3;61.5
23253;BME280;11795;47.054;15.408;2023-03-18T03:16:00;97340;;;2.1;62.1
23253;BME280;11795;47.054;15.408;2023-03-18T03:18:00;97340;;;2.0;62.4
23253;BME280;11795;47.054;15.408;2023-03-18T03:20:01;97350;;;2.1;61.9
23253;BME280;11795;47.054;15.408;2023-03-18T03:22:01;97340;;;2.0;62.0
23253;BME280;11795;47.054;15.408;2023-03-18T03:24:02;97350;;;2.2;61.5
23253;BME280;11795;47.054;15.408;2023-03-18T03:26:02;97350;;;2.1;61.9
23253;BME280;11795;47.054;15.408;2023-03-18T03:28:01;97350;;;2.0;62.0
23253;BME280;11795;47.054;15.408;2023-03-18T03:30:01;97350;;;2.1;61.8
23253;BME280;11795;47.054;15.408;2023-03-18T03:32:01;97350;;;2.0;62.2
23253;BME280;11795;47.054;15.408;2023-03-18T03:34:02;97350;;;2.2;61.7
23253;BME280;11795;47.054;15.408;2023-03-18T03:36:01;97360;;;2.0;62.2
23253;BME280;11795;47.054;15.408;2023-03-18T03:38:01;97360;;;2.0;62.2
23253;BME280;11795;47.054;15.408;2023-03-18T03:40:00;97360;;;2.1;61.9
23253;BME280;11795;47.054;15.408;2023-03-18T03:42:01;97360;;;2.0;62.3
23253;BME280;11795;47.054;15.408;2023-03-18T03:44:01;97360;;;2.1;61.8
23253;BME280;11795;47.054;15.408;2023-03-18T03:46:01;97370;;;2.0;62.3
23253;BME280;11795;47.054;15.408;2023-03-18T03:48:01;97370;;;1.9;62.5
23253;BME280;11795;47.054;15.408;2023-03-18T03:50:01;97370;;;2.0;62.1
23253;BME280;11795;47.054;15.408;2023-03-18T03:52:01;97360;;;1.9;62.7
23253;BME280;11795;47.054;15.408;2023-03-18T03:54:00;97360;;;2.0;62.5
23253;BME280;11795;47.054;15.408;2023-03-18T03:56:01;97370;;;1.9;62.7
23253;BME280;11795;47.054;15.408;2023-03-18T03:58:01;97370;;;1.8;62.7
23253;BME280;11795;47.054;15.408;2023-03-18T04:00:01;97370;;;1.9;62.4
23253;BME280;11795;47.054;15.408;2023-03-18T04:02:01;97370;;;1.8;62.7
23253;BME280;11795;47.054;15.408;2023-03-18T04:04:02;97370;;;2.0;62.2
23253;BME280;11795;47.054;15.408;2023-03-18T04:06:00;97370;;;1.8;62.6
23253;BME280;11795;47.054;15.408;2023-03-18T04:08:00;97370;;;1.7;62.9
23253;BME280;11795;47.054;15.408;2023-03-18T04:10:02;97370;;;1.9;62.5
23253;BME280;11795;47.054;15.408;2023-03-18T04:12:01;97370;;;1.8;62.8
23253;BME280;11795;47.054;15.408;2023-03-18T04:14:01;97380;;;2.0;62.4
23253;BME280;11795;47.054;15.408;2023-03-18T04:16:00;97370;;;1.8;62.8
23253;BME280;11795;47.054;15.408;2023-03-18T04:18:05;97380;;;1.7;62.9
23253;BME280;11795;47.054;15.408;2023-03-18T04:20:01;97380;;;1.8;62.6
23253;BME280;11795;47.054;15.408;2023-03-18T04:22:01;97380;;;1.7;63.1
23253;BME280;11795;47.054;15.408;2023-03-18T04:24:03;97380;;;1.9;62.6
23253;BME280;11795;47.054;15.408;2023-03-18T04:26:00;97370;;;1.7;63.1
23253;BME280;11795;47.054;15.408;2023-03-18T04:28:01;97370;;;1.7;63.2
23253;BME280;11795;47.054;15.408;2023-03-18T04:30:01;97370;;;1.8;62.9
23253;BME280;11795;47.054;15.408;2023-03-18T04:32:00;97380;;;1.7;63.2
23253;BME280;11795;47.054;15.408;2023-03-18T04:34:00;97380;;;1.8;62.8
23253;BME280;11795;47.054;15.408;2023-03-18T04:36:00;97370;;;1.6;63.1
23253;BME280;11795;47.054;15.408;2023-03-18T04:38:00;97370;;;1.6;63.4
23253;BME280;11795;47.054;15.408;2023-03-18T04:40:01;97370;;;1.7;63.0
23253;BME280;11795;47.054;15.408;2023-03-18T04:42:00;97380;;;1.6;63.4
23253;BME280;11795;47.054;15.408;2023-03-18T04:44:01;97380;;;1.8;62.9
23253;BME280;11795;47.054;15.408;2023-03-18T04:46:01;97380;;;1.7;63.3
23253;BME280;11795;47.054;15.408;2023-03-18T04:48:01;97370;;;1.5;63.9
23253;BME280;11795;47.054;15.408;2023-03-18T04:50:01;97380;;;1.6;63.7
23253;BME280;11795;47.054;15.408;2023-03-18T04:52:01;97380;;;1.4;64.5
23253;BME280;11795;47.054;15.408;2023-03-18T04:54:01;97380;;;1.6;64.0
23253;BME280;11795;47.054;15.408;2023-03-18T04:56:01;97380;;;1.4;64.1
23253;BME280;11795;47.054;15.408;2023-03-18T04:58:01;97380;;;1.4;64.3
23253;BME280;11795;47.054;15.408;2023-03-18T05:00:01;97390;;;1.5;64.0
23253;BME280;11795;47.054;15.408;2023-03-18T05:02:00;97390;;;1.4;64.4
23253;BME280;11795;47.054;15.408;2023-03-18T05:04:01;97390;;;1.5;63.9
23253;BME280;11795;47.054;15.408;2023-03-18T05:06:01;97390;;;1.4;64.2
23253;BME280;11795;47.054;15.408;2023-03-18T05:08:01;97390;;;1.3;64.5
23253;BME280;11795;47.054;15.408;2023-03-18T05:10:01;97400;;;1.5;64.1
23253;BME280;11795;47.054;15.408;2023-03-18T05:12:00;97400;;;1.4;64.5
23253;BME280;11795;47.054;15.408;2023-03-18T05:14:01;97400;;;1.6;63.9
23253;BME280;11795;47.054;15.408;2023-03-18T05:16:00;97410;;;1.5;64.2
23253;BME280;11795;47.054;15.408;2023-03-18T05:18:00;97410;;;1.6;64.2
23253;BME280;11795;47.054;15.408;2023-03-18T05:20:01;97410;;;1.9;63.2
23253;BME280;11795;47.054;15.408;2023-03-18T05:22:00;97410;;;2.1;63.3
23253;BME280;11795;47.054;15.408;2023-03-18T05:24:01;97410;;;2.9;61.3
23253;BME280;11795;47.054;15.408;2023-03-18T05:26:01;97400;;;3.4;59.6
23253;BME280;11795;47.054;15.408;2023-03-18T05:28:01;97400;;;4.3;57.4
23253;BME280;11795;47.054;15.408;2023-03-18T05:30:01;97400;;;5.5;54.1
23253;BME280;11795;47.054;15.408;2023-03-18T05:32:00;97400;;;6.6;50.7
23253;BME280;11795;47.054;15.408;2023-03-18T05:34:00;97400;;;7.9;47.2
23253;BME280;11795;47.054;15.408;2023-03-18T05:36:01;97390;;;8.8;44.9
23253;BME280;11795;47.054;15.408;2023-03-18T05:38:00;97390;;;9.7;42.6
23253;BME280;11795;47.054;15.408;2023-03-18T05:40:01;97390;;;10.4;40.7
23253;BME280;11795;47.054;15.408;2023-03-18T05:42:01;97390;;;10.8;39.9
23253;BME280;11795;47.054;15.408;2023-03-18T05:44:00;97390;;;11.6;38.8
23253;BME280;11795;47.054;15.408;2023-03-18T05:46:00;97390;;;12.4;36.9
23253;BME280;11795;47.054;15.408;2023-03-18T05:48:00;97380;;;13.1;35.4
23253;BME280;11795;47.054;15.408;2023-03-18T05:50:02;97380;;;13.3;34.8
23253;BME280;11795;47.054;15.408;2023-03-18T05:52:01;97380;;;12.9;35.3
23253;BME280;11795;47.054;15.408;2023-03-18T05:54:01;97380;;;12.3;36.1
23253;BME280;11795;47.054;15.408;2023-03-18T05:56:00;97390;;;11.1;37.6
23253;BME280;11795;47.054;15.408;2023-03-18T05:58:01;97390;;;9.9;39.7
23253;BME280;11795;47.054;15.408;2023-03-18T06:00:00;97400;;;9.1;41.5
23253;BME280;11795;47.054;15.408;2023-03-18T06:02:01;97400;;;8.4;43.4
23253;BME280;11795;47.054;15.408;2023-03-18T06:04:01;97400;;;7.9;44.5
23253;BME280;11795;47.054;15.408;2023-03-18T06:06:00;97410;;;7.3;45.8
23253;BME280;11795;47.054;15.408;2023-03-18T06:08:00;97410;;;6.9;47.0
23253;BME280;11795;47.054;15.408;2023-03-18T06:10:01;97410;;;6.7;47.7
23253;BME280;11795;47.054;15.408;2023-03-18T06:12:00;97410;;;6.4;48.9
23253;BME280;11795;47.054;15.408;2023-03-18T06:14:01;97410;;;6.5;48.9
23253;BME280;11795;47.054;15.408;2023-03-18T06:16:00;97410;;;6.2;49.5
23253;BME280;11795;47.054;15.408;2023-03-18T06:18:00;97410;;;6.0;50.1
23253;BME280;11795;47.054;15.408;2023-03-18T06:20:01;97420;;;6.1;50.2
23253;BME280;11795;47.054;15.408;2023-03-18T06:22:00;97420;;;5.9;50.8
23253;BME280;11795;47.054;15.408;2023-03-18T06:24:01;97420;;;6.1;50.3
23253;BME280;11795;47.054;15.408;2023-03-18T06:26:01;97420;;;5.9;51.0
23253;BME280;11795;47.054;15.408;2023-03-18T06:28:00;97420;;;5.8;51.4
23253;BME280;11795;47.054;15.408;2023-03-18T06:30:04;97420;;;5.8;51.4
23253;BME280;11795;47.054;15.408;2023-03-18T06:32:00;97430;;;5.7;51.8
23253;BME280;11795;47.054;15.408;2023-03-18T06:34:00;97430;;;6.0;51.2
23253;BME280;11795;47.054;15.408;2023-03-18T06:36:01;97430;;;5.9;51.6
23253;BME280;11795;47.054;15.408;2023-03-18T06:38:02;97430;;;5.9;51.4
23253;BME280;11795;47.054;15.408;2023-03-18T06:40:00;97430;;;6.2;50.8
23253;BME280;11795;47.054;15.408;2023-03-18T06:42:00;97430;;;6.2;51.0
23253;BME280;11795;47.054;15.408;2023-03-18T06:44:01;97440;;;6.4;50.7
23253;BME280;11795;47.054;15.408;2023-03-18T06:46:00;97440;;;6.5;50.1
23253;BME280;11795;47.054;15.408;2023-03-18T06:48:01;97440;;;6.5;50.4
23253;BME280;11795;47.054;15.408;2023-03-18T06:50:00;97440;;;6.7;50.0
23253;BME280;11795;47.054;15.408;2023-03-18T06:52:01;97440;;;6.8;50.0
23253;BME280;11795;47.054;15.408;2023-03-18T06:54:00;97450;;;7.1;49.6
23253;BME280;11795;47.054;15.408;2023-03-18T06:56:01;97450;;;7.1;49.2
23253;BME280;11795;47.054;15.408;2023-03-18T06:58:01;97450;;;7.2;49.2
23253;BME280;11795;47.054;15.408;2023-03-18T07:00:00;97450;;;7.5;48.6
23253;BME280;11795;47.054;15.408;2023-03-18T07:02:01;97450;;;7.6;48.0
23253;BME280;11795;47.054;15.408;2023-03-18T07:04:02;97450;;;7.9;47.1
23253;BME280;11795;47.054;15.408;2023-03-18T07:06:01;97460;;;7.8;46.9
23253;BME280;11795;47.054;15.408;2023-03-18T07:08:01;97460;;;7.9;46.4
23253;BME280;11795;47.054;15.408;2023-03-18T07:10:01;97460;;;7.9;46.9
23253;BME280;11795;47.054;15.408;2023-03-18T07:12:01;97450;;;7.9;46.5
23253;BME280;11795;47.054;15.408;2023-03-18T07:14:01;97450;;;8.1;46.2
23253;BME280;11795;47.054;15.408;2023-03-18T07:16:00;97450;;;8.2;46.2
23253;BME280;11795;47.054;15.408;2023-03-18T07:18:02;97450;;;8.3;46.4
23253;BME280;11795;47.054;15.408;2023-03-18T07:20:00;97450;;;8.5;45.9
23253;BME280;11795;47.054;15.408;2023-03-18T07:22:01;97460;;;8.6;45.5
23253;BME280;11795;47.054;15.408;2023-03-18T07:24:03;97450;;;8.9;44.1
23253;BME280;11795;47.054;15.408;2023-03-18T07:26:00;97450;;;8.9;43.6
23253;BME280;11795;47.054;15.408;2023-03-18T07:28:00;97450;;;9.1;42.7
23253;BME280;11795;47.054;15.408;2023-03-18T07:30:01;97450;;;9.4;42.2
23253;BME280;11795;47.054;15.408;2023-03-18T07:32:01;97460;;;9.3;42.2
23253;BME280;11795;47.054;15.408;2023-03-18T07:34:01;97450;;;9.6;42.3
23253;BME280;11795;47.054;15.408;2023-03-18T07:36:00;97460;;;9.6;41.4
23253;BME280;11795;47.054;15.408;2023-03-18T07:38:00;97460;;;9.6;41.1
23253;BME280;11795;47.054;15.408;2023-03-18T07:40:01;97460;;;9.8;40.8
23253;BME280;11795;47.054;15.408;2023-03-18T07:42:01;97470;;;9.9;41.0
23253;BME280;11795;47.054;15.408;2023-03-18T07:44:00;97470;;;10.0;40.0
23253;BME280;11795;47.054;15.408;2023-03-18T07:46:00;97470;;;9.9;40.1
23253;BME280;11795;47.054;15.408;2023-03-18T07:48:00;97470;;;10.0;39.7
23253;BME280;11795;47.054;15.408;2023-03-18T07:50:00;97470;;;10.4;39.7
23253;BME280;11795;47.054;15.408;2023-03-18T07:52:01;97470;;;10.6;39.5
23253;BME280;11795;47.054;15.408;2023-03-18T07:54:00;97470;;;10.9;38.7
23253;BME280;11795;47.054;15.408;2023-03-18T07:56:01;97470;;;11.0;38.6
23253;BME280;11795;47.054;15.408;2023-03-18T07:58:01;97480;;;11.0;38.0
23253;BME280;11795;47.054;15.408;2023-03-18T08:00:00;97480;;;11.3;37.6
23253;BME280;11795;47.054;15.408;2023-03-18T08:02:02;97480;;;11.4;37.2
23253;BME280;11795;47.054;15.408;2023-03-18T08:04:01;97480;;;11.4;36.3
23253;BME280;11795;47.054;15.408;2023-03-18T08:06:01;97470;;;11.5;36.6
23253;BME280;11795;47.054;15.408;2023-03-18T08:08:01;97470;;;11.6;36.8
23253;BME280;11795;47.054;15.408;2023-03-18T08:10:01;97480;;;11.8;36.3
23253;BME280;11795;47.054;15.408;2023-03-18T08:12:00;97480;;;11.7;35.8
23253;BME280;11795;47.054;15.408;2023-03-18T08:14:01;97480;;;11.9;35.3
23253;BME280;11795;47.054;15.408;2023-03-18T08:16:01;97480;;;11.6;35.4
23253;BME280;11795;47.054;15.408;2023-03-18T08:18:00;97480;;;11.7;36.3
23253;BME280;11795;47.054;15.408;2023-03-18T08:20:00;97480;;;11.8;35.3
23253;BME280;11795;47.054;15.408;2023-03-18T08:22:00;97480;;;11.7;35.6
23253;BME280;11795;47.054;15.408;2023-03-18T08:24:00;97480;;;12.3;35.4
23253;BME280;11795;47.054;15.408;2023-03-18T08:26:02;97480;;;12.5;35.3
23253;BME280;11795;47.054;15.408;2023-03-18T08:28:00;97480;;;12.7;34.6
23253;BME280;11795;47.054;15.408;2023-03-18T08:30:00;97470;;;12.9;34.3
23253;BME280;11795;47.054;15.408;2023-03-18T08:32:01;97480;;;12.9;34.1
23253;BME280;11795;47.054;15.408;2023-03-18T08:34:01;97480;;;13.0;33.8
23253;BME280;11795;47.054;15.408;2023-03-18T08:36:00;97480;;;12.9;34.0
23253;BME280;11795;47.054;15.408;2023-03-18T08:38:01;97480;;;12.6;33.4
23253;BME280;11795;47.054;15.408;2023-03-18T08:40:01;97480;;;12.7;34.5
23253;BME280;11795;47.054;15.408;2023-03-18T08:42:02;97480;;;12.8;34.5
23253;BME280;11795;47.054;15.408;2023-03-18T08:44:01;97480;;;13.3;33.7
23253;BME280;11795;47.054;15.408;2023-03-18T08:46:01;97470;;;13.3;33.5
23253;BME280;11795;47.054;15.408;2023-03-18T08:48:01;97470;;;13.5;33.8
23253;BME280;11795;47.054;15.408;2023-03-18T08:50:01;97470;;;13.6;33.5
23253;BME280;11795;47.054;15.408;2023-03-18T08:52:00;97470;;;13.6;32.9
23253;BME280;11795;47.054;15.408;2023-03-18T08:54:00;97480;;;13.7;33.2
23253;BME280;11795;47.054;15.408;2023-03-18T08:56:02;97470;;;13.6;32.8
23253;BME280;11795;47.054;15.408;2023-03-18T08:58:01;97470;;;13.7;33.9
23253;BME280;11795;47.054;15.408;2023-03-18T09:00:00;97470;;;13.9;33.4
23253;BME280;11795;47.054;15.408;2023-03-18T09:02:00;97470;;;14.0;33.5
23253;BME280;11795;47.054;15.408;2023-03-18T09:04:00;97470;;;14.2;33.1
23253;BME280;11795;47.054;15.408;2023-03-18T09:06:01;97470;;;14.1;32.5
23253;BME280;11795;47.054;15.408;2023-03-18T09:08:00;97470;;;14.0;32.7
23253;BME280;11795;47.054;15.408;2023-03-18T09:10:00;97460;;;14.0;32.5
23253;BME280;11795;47.054;15.408;2023-03-18T09:12:01;97470;;;13.9;32.0
23253;BME280;11795;47.054;15.408;2023-03-18T09:14:00;97470;;;13.8;32.7
23253;BME280;11795;47.054;15.408;2023-03-18T09:16:01;97470;;;13.7;33.6
23253;BME280;11795;47.054;15.408;2023-03-18T09:18:00;97460;;;13.7;33.1
23253;BME280;11795;47.054;15.408;2023-03-18T09:20:02;97460;;;13.8;32.3
23253;BME280;11795;47.054;15.408;2023-03-18T09:22:01;97460;;;13.6;32.9
23253;BME280;11795;47.054;15.408;2023-03-18T09:24:01;97460;;;13.9;33.1
23253;BME280;11795;47.054;15.408;2023-03-18T09:26:01;97470;;;14.2;32.7
23253;BME280;11795;47.054;15.408;2023-03-18T09:28:00;97460;;;14.4;32.8
23253;BME280;11795;47.054;15.408;2023-03-18T09:30:01;97460;;;14.6;32.4
23253;BME280;11795;47.054;15.408;2023-03-18T09:32:00;97460;;;14.5;32.4
23253;BME280;11795;47.054;15.408;2023-03-18T09:34:00;97470;;;14.7;32.2
23253;BME280;11795;47.054;15.408;2023-03-18T09:36:00;97460;;;14.6;31.8
23253;BME280;11795;47.054;15.408;2023-03-18T09:38:01;97460;;;14.7;32.6
23253;BME280;11795;47.054;15.408;2023-03-18T09:40:00;97450;;;14.9;31.6
23253;BME280;11795;47.054;15.408;2023-03-18T09:42:12;97450;;;14.8;31.5
23253;BME280;11795;47.054;15.408;2023-03-18T09:44:08;97460;;;14.9;31.5
23253;BME280;11795;47.054;15.408;2023-03-18T09:46:05;97460;;;14.8;31.4
23253;BME280;11795;47.054;15.408;2023-03-18T09:48:09;97450;;;14.8;32.3
23253;BME280;11795;47.054;15.408;2023-03-18T09:50:08;97460;;;15.2;32.1
23253;BME280;11795;47.054;15.408;2023-03-18T09:52:11;97450;;;15.3;31.6
23253;BME280;11795;47.054;15.408;2023-03-18T09:54:02;97450;;;15.4;31.0
23253;BME280;11795;47.054;15.408;2023-03-18T09:56:02;97450;;;15.4;30.8
23253;BME280;11795;47.054;15.408;2023-03-18T09:58:07;97460;;;15.2;30.7
23253;BME280;11795;47.054;15.408;2023-03-18T10:00:04;97450;;;15.2;30.5
23253;BME280;11795;47.054;15.408;2023-03-18T10:02:01;97460;;;15.1;30.9
23253;BME280;11795;47.054;15.408;2023-03-18T10:04:04;97460;;;15.2;31.5
23253;BME280;11795;47.054;15.408;2023-03-18T10:06:04;97460;;;15.6;31.7
23253;BME280;11795;47.054;15.408;2023-03-18T10:08:05;97460;;;15.6;30.7
23253;BME280;11795;47.054;15.408;2023-03-18T10:10:04;97460;;;15.7;30.4
23253;BME280;11795;47.054;15.408;2023-03-18T10:12:06;97460;;;15.5;30.3
23253;BME280;11795;47.054;15.408;2023-03-18T10:14:17;97460;;;15.5;30.5
23253;BME280;11795;47.054;15.408;2023-03-18T10:16:03;97470;;;15.7;30.8
23253;BME280;11795;47.054;15.408;2023-03-18T10:18:04;97460;;;15.4;30.1
23253;BME280;11795;47.054;15.408;2023-03-18T10:20:14;97460;;;15.6;30.6
23253;BME280;11795;47.054;15.408;2023-03-18T10:22:13;97460;;;15.6;29.8
23253;BME280;11795;47.054;15.408;2023-03-18T10:24:08;97460;;;15.6;30.6
23253;BME280;11795;47.054;15.408;2023-03-18T10:26:04;97460;;;15.7;30.6
23253;BME280;11795;47.054;15.408;2023-03-18T10:28:13;97460;;;15.7;30.3
23253;BME280;11795;47.054;15.408;2023-03-18T10:30:06;97470;;;16.0;30.3
23253;BME280;11795;47.054;15.408;2023-03-18T10:32:07;97450;;;16.1;30.5
23253;BME280;11795;47.054;15.408;2023-03-18T10:34:05;97460;;;16.4;30.0
23253;BME280;11795;47.054;15.408;2023-03-18T10:36:04;97450;;;16.3;29.1
23253;BME280;11795;47.054;15.408;2023-03-18T10:38:02;97450;;;16.1;29.4
23253;BME280;11795;47.054;15.408;2023-03-18T10:40:01;97460;;;16.2;29.9
23253;BME280;11795;47.054;15.408;2023-03-18T10:42:14;97450;;;16.1;30.0
23253;BME280;11795;47.054;15.408;2023-03-18T10:44:04;97460;;;16.1;29.5
23253;BME280;11795;47.054;15.408;2023-03-18T10:46:03;97460;;;15.9;29.4
23253;BME280;11795;47.054;15.408;2023-03-18T10:48:04;97460;;;15.9;29.6
23253;BME280;11795;47.054;15.408;2023-03-18T10:50:03;97450;;;16.2;29.7
23253;BME280;11795;47.054;15.408;2023-03-18T10:52:04;97450;;;16.4;29.4
23253;BME280;11795;47.054;15.408;2023-03-18T10:54:08;97450;;;16.1;29.4
23253;BME280;11795;47.054;15.408;2023-03-18T10:56:05;97450;;;16.1;29.5
23253;BME280;11795;47.054;15.408;2023-03-18T10:58:01;97450;;;16.0;29.5
23253;BME280;11795;47.054;15.408;2023-03-18T11:00:00;97450;;;16.2;29.4
23253;BME280;11795;47.054;15.408;2023-03-18T11:02:02;97450;;;16.1;29.0
23253;BME280;11795;47.054;15.408;2023-03-18T11:04:04;97450;;;15.9;29.7
23253;BME280;11795;47.054;15.408;2023-03-18T11:06:02;97440;;;16.1;29.1
23253;BME280;11795;47.054;15.408;2023-03-18T11:08:03;97450;;;15.9;29.5
23253;BME280;11795;47.054;15.408;2023-03-18T11:10:11;97440;;;15.9;29.9
23253;BME280;11795;47.054;15.408;2023-03-18T11:12:04;97440;;;15.8;29.3
23253;BME280;11795;47.054;15.408;2023-03-18T11:14:02;97440;;;15.8;29.8
23253;BME280;11795;47.054;15.408;2023-03-18T11:16:01;97440;;;16.1;29.5
23253;BME280;11795;47.054;15.408;2023-03-18T11:18:02;97440;;;16.1;29.8